createdAt,value
2023-03-12T00:01:30.315Z,-2.57
2023-03-12T00:04:19.986Z,-2.59
2023-03-12T00:07:08.888Z,-2.59
2023-03-12T00:09:56.853Z,-2.60
2023-03-12T00:12:44.672Z,-2.63
2023-03-12T00:15:32.463Z,-2.64
2023-03-12T00:18:20.360Z,-2.63
2023-03-12T00:21:10.711Z,-2.65
2023-03-12T00:23:58.799Z,-2.67
2023-03-12T00:26:46.794Z,-2.68
2023-03-12T00:29:34.641Z,-2.69
2023-03-12T00:32:22.832Z,-2.70
2023-03-12T00:35:11.254Z,-2.69
2023-03-12T00:38:00.752Z,-2.68
2023-03-12T00:40:48.441Z,-2.69
2023-03-12T00:43:36.537Z,-2.69
2023-03-12T00:46:25.736Z,-2.72
2023-03-12T00:49:16.020Z,-2.75
2023-03-12T00:52:07.264Z,-2.75
2023-03-12T00:54:58.840Z,-2.76
2023-03-12T00:57:46.980Z,-2.77
2023-03-12T01:00:37.337Z,-2.77
2023-03-12T01:03:25.437Z,-2.78
2023-03-12T01:06:13.583Z,-2.78
2023-03-12T01:09:03.247Z,-2.78
2023-03-12T01:11:54.556Z,-2.81
2023-03-12T01:14:44.630Z,-2.81
2023-03-12T01:17:34.084Z,-2.82
2023-03-12T01:20:23.084Z,-2.86
2023-03-12T01:23:11.421Z,-2.87
2023-03-12T01:26:04.393Z,-2.90
2023-03-12T01:28:53.858Z,-2.91
2023-03-12T01:31:42.226Z,-2.92
2023-03-12T01:34:30.809Z,-2.91
2023-03-12T01:37:23.088Z,-2.94
2023-03-12T01:40:15.869Z,-2.95
2023-03-12T01:43:25.923Z,-2.97
2023-03-12T01:46:34.829Z,-2.99
2023-03-12T01:49:29.429Z,-3.02
2023-03-12T01:52:26.350Z,-3.03
2023-03-12T01:55:23.112Z,-3.06
2023-03-12T01:58:14.123Z,-3.09
2023-03-12T02:01:06.058Z,-3.10
2023-03-12T02:04:01.586Z,-3.11
2023-03-12T02:06:55.045Z,-3.12
2023-03-12T02:09:45.035Z,-3.16
2023-03-12T02:12:33.857Z,-3.19
2023-03-12T02:15:23.158Z,-3.21
2023-03-12T02:18:15.321Z,-3.22
2023-03-12T02:21:11.931Z,-3.23
2023-03-12T02:24:06.564Z,-3.25
2023-03-12T02:26:59.650Z,-3.25
2023-03-12T02:29:49.954Z,-3.24
2023-03-12T02:32:41.457Z,-3.25
2023-03-12T02:35:29.508Z,-3.21
2023-03-12T02:38:43.093Z,-3.24
2023-03-12T02:41:37.675Z,-3.23
2023-03-12T02:44:29.321Z,-3.16
2023-03-12T02:47:17.488Z,-3.12
2023-03-12T02:50:06.096Z,-3.07
2023-03-12T02:52:55.046Z,-3.11
2023-03-12T02:55:43.024Z,-3.04
2023-03-12T02:58:33.754Z,-2.94
2023-03-12T03:01:23.376Z,-2.92
2023-03-12T03:04:13.113Z,-2.96
2023-03-12T03:07:02.240Z,-2.90
2023-03-12T03:09:50.978Z,-2.89
2023-03-12T03:12:39.291Z,-2.79
2023-03-12T03:15:28.073Z,-2.80
2023-03-12T03:18:17.249Z,-2.67
2023-03-12T03:21:07.164Z,-2.55
2023-03-12T03:23:55.304Z,-2.56
2023-03-12T03:26:44.158Z,-2.57
2023-03-12T03:29:32.101Z,-2.57
2023-03-12T03:32:20.308Z,-2.68
2023-03-12T03:35:10.608Z,-2.64
2023-03-12T03:37:59.865Z,-2.56
2023-03-12T03:40:48.744Z,-2.51
2023-03-12T03:43:36.416Z,-2.44
2023-03-12T03:46:24.600Z,-2.36
2023-03-12T03:49:12.538Z,-2.39
2023-03-12T03:52:03.905Z,-2.38
2023-03-12T03:54:53.312Z,-2.34
2023-03-12T03:57:41.756Z,-2.37
2023-03-12T04:00:33.160Z,-2.39
2023-03-12T04:03:20.979Z,-2.39
2023-03-12T04:06:09.603Z,-2.32
2023-03-12T04:08:59.763Z,-2.39
2023-03-12T04:11:48.198Z,-2.36
2023-03-12T04:15:20.505Z,-2.31
2023-03-12T04:19:35.274Z,-2.16
2023-03-12T04:21:56.175Z,-2.11
2023-03-12T04:24:48.212Z,-2.17
2023-03-12T04:27:36.144Z,-2.21
2023-03-12T04:30:23.780Z,-2.21
2023-03-12T04:33:11.953Z,-2.08
2023-03-12T04:36:00.020Z,-1.99
2023-03-12T04:38:47.780Z,-1.99
2023-03-12T04:41:39.237Z,-2.00
2023-03-12T04:44:27.116Z,-1.99
2023-03-12T04:47:14.995Z,-1.99
2023-03-12T04:50:03.040Z,-2.05
2023-03-12T04:52:50.677Z,-2.07
2023-03-12T04:55:40.000Z,-2.07
2023-03-12T04:58:31.097Z,-2.05
2023-03-12T05:01:24.930Z,-1.97
2023-03-12T05:04:15.849Z,-2.01
2023-03-12T05:07:06.937Z,-2.04
2023-03-12T05:09:54.843Z,-2.06
2023-03-12T05:12:43.342Z,-2.08
2023-03-12T05:15:35.996Z,-2.01
2023-03-12T05:18:26.485Z,-2.03
2023-03-12T05:21:18.505Z,-2.10
2023-03-12T05:24:08.267Z,-2.13
2023-03-12T05:26:56.347Z,-2.15
2023-03-12T05:29:44.270Z,-2.13
2023-03-12T05:32:33.964Z,-2.11
2023-03-12T05:35:21.899Z,-2.14
2023-03-12T05:38:10.099Z,-2.11
2023-03-12T05:41:00.198Z,-2.07
2023-03-12T05:43:51.208Z,-2.12
2023-03-12T05:46:39.172Z,-2.08
2023-03-12T05:49:29.063Z,-2.03
2023-03-12T05:52:16.961Z,-2.00
2023-03-12T05:55:05.598Z,-1.90
2023-03-12T05:57:53.665Z,-1.87
2023-03-12T06:03:56.339Z,-1.83
2023-03-12T06:06:45.864Z,-1.86
2023-03-12T06:09:34.078Z,-1.89
2023-03-12T06:12:21.978Z,-1.93
2023-03-12T06:15:11.366Z,-1.89
2023-03-12T06:17:59.204Z,-1.72
2023-03-12T06:20:48.872Z,-1.62
2023-03-12T06:23:38.827Z,-1.57
2023-03-12T06:26:29.795Z,-1.46
2023-03-12T06:29:17.915Z,-1.35
2023-03-12T06:32:06.495Z,-1.27
2023-03-12T06:34:54.453Z,-1.20
2023-03-12T06:37:46.161Z,-1.20
2023-03-12T06:40:36.581Z,-1.16
2023-03-12T06:43:28.701Z,-1.07
2023-03-12T06:46:21.894Z,-0.98
2023-03-12T06:49:10.275Z,-0.88
2023-03-12T06:52:02.077Z,-0.89
2023-03-12T06:54:50.253Z,-0.71
2023-03-12T06:58:08.972Z,-0.60
2023-03-12T07:00:58.595Z,-0.46
2023-03-12T07:03:47.492Z,-0.43
2023-03-12T07:06:35.912Z,-0.42
2023-03-12T07:09:23.842Z,-0.32
2023-03-12T07:12:12.147Z,-0.22
2023-03-12T07:15:02.985Z,-0.15
2023-03-12T07:17:50.803Z,-0.06
2023-03-12T07:20:40.368Z,0.04
2023-03-12T07:23:28.345Z,0.17
2023-03-12T07:26:16.394Z,0.28
2023-03-12T07:29:05.014Z,0.44
2023-03-12T07:31:54.095Z,0.57
2023-03-12T07:34:42.046Z,0.70
2023-03-12T07:37:29.835Z,0.82
2023-03-12T07:40:17.748Z,0.82
2023-03-12T07:43:11.038Z,0.82
2023-03-12T07:45:58.975Z,0.89
2023-03-12T07:48:48.777Z,0.96
2023-03-12T07:51:37.282Z,1.06
2023-03-12T07:54:30.489Z,1.19
2023-03-12T07:57:18.661Z,1.34
2023-03-12T08:00:08.917Z,1.52
2023-03-12T08:02:56.749Z,1.60
2023-03-12T08:05:46.647Z,1.69
2023-03-12T08:08:36.188Z,1.72
2023-03-12T08:11:24.238Z,1.82
2023-03-12T08:14:12.367Z,1.99
2023-03-12T08:17:00.791Z,2.04
2023-03-12T08:19:49.361Z,2.13
2023-03-12T08:22:39.573Z,2.23
2023-03-12T08:25:31.120Z,2.15
2023-03-12T08:28:20.407Z,2.21
2023-03-12T08:31:09.532Z,2.39
2023-03-12T08:33:57.737Z,2.54
2023-03-12T08:36:45.955Z,2.78
2023-03-12T08:39:35.466Z,2.97
2023-03-12T08:42:23.709Z,3.09
2023-03-12T08:45:13.409Z,3.09
2023-03-12T08:48:01.731Z,3.10
2023-03-12T08:50:49.744Z,3.19
2023-03-12T08:53:38.375Z,3.08
2023-03-12T08:56:27.545Z,3.20
2023-03-12T08:59:15.948Z,3.43
2023-03-12T09:02:03.925Z,3.51
2023-03-12T09:04:51.952Z,3.64
2023-03-12T09:07:40.101Z,3.60
2023-03-12T09:10:30.780Z,3.48
2023-03-12T09:13:20.270Z,3.67
2023-03-12T09:16:09.272Z,3.93
2023-03-12T09:18:57.492Z,4.05
2023-03-12T09:21:45.463Z,4.19
2023-03-12T09:24:33.481Z,4.21
2023-03-12T09:27:21.330Z,4.34
2023-03-12T09:30:14.379Z,4.50
2023-03-12T09:33:02.223Z,4.79
2023-03-12T09:35:58.770Z,4.72
2023-03-12T09:38:47.073Z,4.79
2023-03-12T09:41:41.198Z,4.86
2023-03-12T09:44:37.890Z,5.22
2023-03-12T09:47:31.802Z,5.18
2023-03-12T09:50:27.427Z,5.26
2023-03-12T09:53:23.126Z,5.27
2023-03-12T09:56:17.563Z,5.03
2023-03-12T09:59:10.857Z,5.40
2023-03-12T10:02:05.492Z,5.70
2023-03-12T10:05:14.119Z,5.94
2023-03-12T10:08:24.773Z,6.00
2023-03-12T10:11:28.059Z,5.89
2023-03-12T10:14:39.474Z,5.99
2023-03-12T10:17:43.596Z,5.98
2023-03-12T10:20:54.272Z,6.28
2023-03-12T10:24:08.801Z,6.50
2023-03-12T10:26:58.815Z,6.44
2023-03-12T10:29:49.902Z,6.27
2023-03-12T10:32:42.658Z,6.58
2023-03-12T10:35:31.730Z,6.65
2023-03-12T10:38:39.284Z,6.70
2023-03-12T10:41:34.769Z,6.60
2023-03-12T10:44:26.229Z,6.46
2023-03-12T10:47:33.949Z,6.56
2023-03-12T10:50:24.147Z,6.41
2023-03-12T10:53:28.500Z,6.63
2023-03-12T10:56:19.357Z,6.23
2023-03-12T10:59:32.056Z,6.51
2023-03-12T11:02:35.370Z,6.05
2023-03-12T11:05:25.684Z,6.20
2023-03-12T11:08:23.443Z,5.83
2023-03-12T11:11:12.682Z,6.16
2023-03-12T11:14:16.283Z,6.48
2023-03-12T11:17:21.962Z,6.75
2023-03-12T11:20:26.804Z,6.88
2023-03-12T11:23:16.795Z,6.66
2023-03-12T11:26:12.584Z,6.33
2023-03-12T11:29:06.365Z,6.44
2023-03-12T11:32:07.235Z,6.52
2023-03-12T11:34:56.049Z,6.79
2023-03-12T11:38:01.240Z,6.37
2023-03-12T11:41:06.894Z,6.16
2023-03-12T11:44:17.134Z,6.52
2023-03-12T11:47:19.119Z,6.66
2023-03-12T11:50:26.421Z,6.55
2023-03-12T11:53:32.165Z,6.66
2023-03-12T11:56:30.522Z,6.59
2023-03-12T11:59:44.724Z,6.58
2023-03-12T12:03:00.748Z,6.51
2023-03-12T12:06:03.464Z,6.48
2023-03-12T12:09:17.799Z,6.41
2023-03-12T12:12:20.637Z,6.44
2023-03-12T12:15:24.800Z,6.45
2023-03-12T12:18:30.617Z,6.46
2023-03-12T12:21:52.385Z,6.64
2023-03-12T12:25:04.432Z,6.90
2023-03-12T12:28:04.446Z,6.78
2023-03-12T12:31:06.699Z,6.87
2023-03-12T12:34:17.295Z,7.00
2023-03-12T12:37:27.856Z,6.88
2023-03-12T12:40:23.015Z,6.77
2023-03-12T12:43:28.796Z,6.64
2023-03-12T12:46:21.033Z,6.93
2023-03-12T12:49:14.356Z,6.61
2023-03-12T12:52:09.017Z,6.87
2023-03-12T12:55:08.190Z,6.71
2023-03-12T12:58:03.932Z,6.77
2023-03-12T13:00:55.716Z,6.62
2023-03-12T13:03:46.966Z,6.84
2023-03-12T13:06:58.853Z,6.80
2023-03-12T13:09:50.434Z,6.72
2023-03-12T13:12:51.566Z,6.67
2023-03-12T13:15:43.562Z,6.65
2023-03-12T13:18:32.104Z,6.63
2023-03-12T13:21:30.396Z,6.60
2023-03-12T13:24:23.747Z,6.67
2023-03-12T13:27:19.922Z,6.57
2023-03-12T13:30:54.928Z,6.72
2023-03-12T13:33:45.353Z,6.82
2023-03-12T13:36:38.572Z,6.90
2023-03-12T13:39:32.135Z,6.86
2023-03-12T13:42:41.903Z,6.92
2023-03-12T13:45:31.933Z,7.05
2023-03-12T13:48:22.082Z,6.97
2023-03-12T13:51:17.585Z,6.95
2023-03-12T13:54:07.780Z,7.01
2023-03-12T13:57:02.995Z,7.04
2023-03-12T13:59:53.314Z,7.04
2023-03-12T14:02:49.345Z,6.98
2023-03-12T14:05:48.860Z,7.07
2023-03-12T14:08:53.751Z,6.98
2023-03-12T14:11:54.410Z,6.93
2023-03-12T14:15:12.916Z,7.07
2023-03-12T14:18:05.345Z,7.11
2023-03-12T14:20:57.387Z,7.18
2023-03-12T14:23:50.883Z,7.17
2023-03-12T14:26:39.784Z,7.27
2023-03-12T14:29:32.461Z,7.34
2023-03-12T14:32:23.513Z,7.33
2023-03-12T14:35:20.564Z,7.36
2023-03-12T14:38:14.775Z,7.55
2023-03-12T14:41:06.207Z,7.57
2023-03-12T14:43:55.377Z,7.58
2023-03-12T14:46:58.049Z,7.60
2023-03-12T14:49:47.884Z,7.66
2023-03-12T14:52:35.644Z,7.79
2023-03-12T14:55:26.143Z,7.94
2023-03-12T14:58:19.911Z,8.01
2023-03-12T15:01:14.502Z,8.04
2023-03-12T15:04:06.061Z,8.13
2023-03-12T15:06:56.526Z,8.25
2023-03-12T15:09:49.869Z,8.33
2023-03-12T15:12:39.832Z,8.37
2023-03-12T15:15:41.580Z,8.46
2023-03-12T15:18:32.557Z,8.53
2023-03-12T15:21:22.937Z,8.60
2023-03-12T15:24:13.808Z,8.61
2023-03-12T15:27:31.181Z,8.62
2023-03-12T15:30:27.692Z,8.63
2023-03-12T15:33:25.562Z,8.63
2023-03-12T15:36:28.669Z,8.67
2023-03-12T15:39:29.837Z,8.70
2023-03-12T15:42:21.159Z,8.72
2023-03-12T15:45:20.443Z,8.76
2023-03-12T15:48:23.229Z,8.80
2023-03-12T15:51:14.359Z,8.83
2023-03-12T15:54:23.023Z,8.90
2023-03-12T15:57:23.766Z,8.92
2023-03-12T16:00:22.050Z,8.97
2023-03-12T16:03:18.298Z,8.99
2023-03-12T16:06:06.728Z,9.01
2023-03-12T16:08:58.865Z,9.03
2023-03-12T16:11:49.109Z,9.05
2023-03-12T16:14:37.072Z,9.06
2023-03-12T16:17:25.545Z,9.02
2023-03-12T16:20:17.433Z,9.02
2023-03-12T16:23:05.644Z,9.03
2023-03-12T16:25:56.760Z,9.01
2023-03-12T16:28:46.225Z,9.00
2023-03-12T16:31:34.441Z,8.98
2023-03-12T16:34:22.311Z,8.97
2023-03-12T16:37:11.581Z,8.93
2023-03-12T16:40:00.004Z,8.89
2023-03-12T16:42:51.027Z,8.87
2023-03-12T16:45:45.661Z,8.84
2023-03-12T16:48:33.758Z,8.81
2023-03-12T16:51:21.699Z,8.79
2023-03-12T16:54:11.967Z,8.78
2023-03-12T16:57:00.063Z,8.74
2023-03-12T16:59:48.029Z,8.71
2023-03-12T17:02:37.608Z,8.68
2023-03-12T17:05:25.421Z,8.63
2023-03-12T17:08:13.052Z,8.62
2023-03-12T17:11:01.733Z,8.59
2023-03-12T17:13:52.550Z,8.60
2023-03-12T17:16:40.610Z,8.58
2023-03-12T17:19:30.103Z,8.55
2023-03-12T17:22:18.482Z,8.53
2023-03-12T17:25:08.059Z,8.50
2023-03-12T17:27:57.314Z,8.49
2023-03-12T17:30:47.376Z,8.44
2023-03-12T17:33:34.967Z,8.41
2023-03-12T17:36:24.717Z,8.37
2023-03-12T17:39:12.791Z,8.35
2023-03-12T17:42:00.672Z,8.28
2023-03-12T17:44:48.628Z,8.25
2023-03-12T17:47:37.097Z,8.20
2023-03-12T17:50:25.001Z,8.16
2023-03-12T17:53:16.195Z,8.11
2023-03-12T17:56:04.208Z,8.09
2023-03-12T17:58:52.252Z,8.03
2023-03-12T18:01:40.490Z,7.98
2023-03-12T18:04:28.659Z,7.94
2023-03-12T18:07:16.645Z,7.90
2023-03-12T18:10:07.736Z,7.85
2023-03-12T18:12:55.915Z,7.81
2023-03-12T18:15:44.298Z,7.78
2023-03-12T18:18:32.231Z,7.73
2023-03-12T18:21:22.778Z,7.72
2023-03-12T18:24:14.790Z,7.66
2023-03-12T18:27:04.356Z,7.65
2023-03-12T18:29:52.056Z,7.60
2023-03-12T18:32:40.742Z,7.55
2023-03-12T18:35:30.466Z,7.53
2023-03-12T18:38:18.608Z,7.52
2023-03-12T18:41:07.520Z,7.49
2023-03-12T18:43:57.102Z,7.45
2023-03-12T18:46:45.260Z,7.43
2023-03-12T18:49:33.334Z,7.44
2023-03-12T18:52:21.432Z,7.44
2023-03-12T18:55:15.209Z,7.36
2023-03-12T18:58:03.096Z,7.39
2023-03-12T19:00:54.713Z,7.37
2023-03-12T19:03:42.639Z,7.46
2023-03-12T19:06:40.806Z,7.45
2023-03-12T19:09:35.930Z,7.46
2023-03-12T19:12:23.533Z,7.40
2023-03-12T19:15:12.912Z,7.45
2023-03-12T19:18:02.343Z,7.48
2023-03-12T19:20:50.327Z,7.45
2023-03-12T19:23:38.313Z,7.51
2023-03-12T19:26:26.261Z,7.55
2023-03-12T19:29:16.424Z,7.52
2023-03-12T19:32:04.149Z,7.51
2023-03-12T19:34:53.230Z,7.50
2023-03-12T19:37:41.132Z,7.51
2023-03-12T19:40:28.947Z,7.44
2023-03-12T19:43:16.924Z,7.42
2023-03-12T19:46:05.395Z,7.45
2023-03-12T19:48:53.226Z,7.54
2023-03-12T19:51:42.662Z,7.59
2023-03-12T19:54:30.750Z,7.64
2023-03-12T19:57:19.269Z,7.67
2023-03-12T20:00:10.176Z,7.68
2023-03-12T20:02:59.553Z,7.65
2023-03-12T20:05:47.926Z,7.69
2023-03-12T20:08:37.369Z,7.74
2023-03-12T20:11:25.100Z,7.68
2023-03-12T20:14:13.028Z,7.74
2023-03-12T20:17:00.968Z,7.79
2023-03-12T20:19:49.006Z,7.75
2023-03-12T20:22:37.392Z,7.73
2023-03-12T20:25:26.842Z,7.71
2023-03-12T20:28:14.485Z,7.71
2023-03-12T20:31:09.750Z,7.65
2023-03-12T20:33:57.519Z,7.61
2023-03-12T20:36:45.488Z,7.62
2023-03-12T20:39:33.367Z,7.59
2023-03-12T20:42:22.630Z,7.58
2023-03-12T20:45:11.111Z,7.52
2023-03-12T20:47:58.799Z,7.49
2023-03-12T20:50:46.829Z,7.46
2023-03-12T20:53:34.546Z,7.42
2023-03-12T20:56:22.643Z,7.37
2023-03-12T20:59:11.869Z,7.36
2023-03-12T21:01:59.761Z,7.31
2023-03-12T21:04:49.371Z,7.28
2023-03-12T21:07:37.514Z,7.26
2023-03-12T21:10:25.428Z,7.23
2023-03-12T21:13:13.217Z,7.21
2023-03-12T21:16:02.394Z,7.18
2023-03-12T21:18:50.146Z,7.14
2023-03-12T21:21:38.279Z,7.10
2023-03-12T21:24:26.192Z,7.07
2023-03-12T21:27:14.154Z,7.04
2023-03-12T21:30:02.209Z,6.99
2023-03-12T21:32:51.518Z,6.96
2023-03-12T21:35:39.208Z,6.92
2023-03-12T21:38:27.100Z,6.87
2023-03-12T21:41:17.349Z,6.84
2023-03-12T21:44:05.584Z,6.84
2023-03-12T21:46:53.181Z,6.80
2023-03-12T21:49:42.530Z,6.84
2023-03-12T21:52:30.557Z,6.78
2023-03-12T21:55:19.469Z,6.75
2023-03-12T21:58:07.523Z,6.75
2023-03-12T22:01:04.956Z,6.68
2023-03-12T22:03:52.905Z,6.67
2023-03-12T22:06:42.883Z,6.62
2023-03-12T22:09:30.580Z,6.69
2023-03-12T22:12:18.632Z,6.62
2023-03-12T22:15:08.163Z,6.72
2023-03-12T22:17:56.190Z,6.72
2023-03-12T22:20:50.793Z,6.72
2023-03-12T22:23:43.030Z,6.75
2023-03-12T22:26:31.156Z,6.76
2023-03-12T22:29:18.992Z,6.73
2023-03-12T22:32:07.081Z,6.71
2023-03-12T22:34:55.341Z,6.81
2023-03-12T22:37:46.086Z,6.81
2023-03-12T22:40:35.564Z,6.83
2023-03-12T22:43:23.319Z,6.87
2023-03-12T22:46:11.660Z,6.91
2023-03-12T22:49:02.002Z,7.01
2023-03-12T22:51:49.856Z,7.04
2023-03-12T22:54:38.022Z,7.08
2023-03-12T22:57:27.105Z,7.15
2023-03-12T23:00:17.561Z,7.18
2023-03-12T23:03:05.264Z,7.15
2023-03-12T23:05:53.308Z,7.16
2023-03-12T23:08:41.622Z,7.15
2023-03-12T23:11:29.620Z,7.15
2023-03-12T23:14:19.014Z,7.14
2023-03-12T23:17:06.920Z,7.14
2023-03-12T23:19:54.799Z,7.14
2023-03-12T23:22:43.040Z,7.11
2023-03-12T23:25:30.977Z,7.11
2023-03-12T23:28:18.878Z,7.10
2023-03-12T23:31:10.359Z,7.09
2023-03-12T23:33:59.398Z,7.07
2023-03-12T23:36:47.328Z,7.04
2023-03-12T23:39:45.045Z,7.00
2023-03-12T23:42:39.933Z,6.97
2023-03-12T23:45:27.945Z,6.98
2023-03-12T23:48:17.548Z,6.95
2023-03-12T23:51:06.817Z,6.92
2023-03-12T23:53:57.957Z,6.88
2023-03-12T23:56:45.840Z,6.82
2023-03-12T23:59:33.937Z,6.74
